Time;durP1;ratioP1;P1;durP2;ratioP2;P2;SDS_P1;SDS_P2;PMS_P1;PMS_P2;Temp;Humidity;BMP_temperature;BMP_pressure;BME280_temperature;BME280_humidity;BME280_pressure;Samples;Min_cycle;Max_cycle;Signal;HPM_P1;HPM_P2
2023/05/06 00:02:00;;;;;;;21.77;19.47;;;16.20;95.80;;;;;;5055642;28;20579;-57
2023/05/06 00:04:28;;;;;;;22.27;18.93;;;16.10;95.40;;;;;;5055368;28;20564;-57
2023/05/06 00:06:55;;;;;;;23.40;21.03;;;16.10;95.50;;;;;;5055336;28;20449;-57
2023/05/06 00:09:22;;;;;;;23.77;20.47;;;16.10;95.50;;;;;;5054750;28;20926;-57
2023/05/06 00:11:49;;;;;;;20.97;18.57;;;16.00;95.30;;;;;;5054971;28;20959;-57
2023/05/06 00:14:16;;;;;;;24.10;20.23;;;16.00;95.20;;;;;;5055245;28;20475;-57
2023/05/06 00:16:43;;;;;;;25.37;21.77;;;16.00;95.20;;;;;;5055244;28;20489;-57
2023/05/06 00:19:10;;;;;;;20.50;18.10;;;15.90;95.00;;;;;;5055190;28;20795;-56
2023/05/06 00:21:38;;;;;;;19.43;17.43;;;15.80;95.00;;;;;;5055111;28;20464;-57
2023/05/06 00:24:05;;;;;;;19.53;16.33;;;15.80;95.00;;;;;;5055037;28;20469;-58
2023/05/06 00:26:32;;;;;;;15.40;13.80;;;15.70;94.90;;;;;;5054975;28;20541;-58
2023/05/06 00:28:58;;;;;;;13.80;12.33;;;15.60;94.90;;;;;;5054575;28;20943;-58
2023/05/06 00:31:25;;;;;;;15.83;13.47;;;15.50;94.80;;;;;;5054883;28;20817;-58
2023/05/06 00:33:52;;;;;;;15.77;13.37;;;15.50;94.70;;;;;;5054790;28;20469;-58
2023/05/06 00:36:18;;;;;;;14.23;12.50;;;15.40;94.60;;;;;;5054699;28;20485;-58
2023/05/06 00:38:46;;;;;;;13.67;12.30;;;15.30;94.60;;;;;;5054756;28;20457;-58
2023/05/06 00:41:13;;;;;;;13.43;12.13;;;15.20;94.40;;;;;;5054687;28;20507;-56
2023/05/06 00:43:39;;;;;;;13.37;12.00;;;15.20;94.40;;;;;;5054521;28;20446;-57
2023/05/06 00:46:09;;;;;;;13.73;12.33;;;15.10;94.30;;;;;;5054672;28;20457;-57
2023/05/06 00:48:36;;;;;;;14.40;12.23;;;15.10;94.30;;;;;;5054226;28;20994;-56
2023/05/06 00:51:03;;;;;;;14.47;12.10;;;15.10;94.20;;;;;;5054473;28;20495;-57
2023/05/06 00:53:31;;;;;;;13.03;11.03;;;15.00;94.10;;;;;;5054419;28;20445;-57
2023/05/06 00:55:59;;;;;;;12.57;11.23;;;15.00;94.10;;;;;;5053531;28;20509;-57
2023/05/06 00:58:26;;;;;;;16.77;12.47;;;14.90;94.10;;;;;;5054317;28;20457;-57
2023/05/06 01:00:54;;;;;;;11.70;10.50;;;14.90;94.20;;;;;;5054382;28;20457;-57
2023/05/06 01:03:21;;;;;;;12.30;11.10;;;14.80;94.10;;;;;;5054348;28;20495;-57
2023/05/06 01:05:53;;;;;;;14.30;12.63;;;14.80;94.10;;;;;;5053908;28;20931;-57
2023/05/06 01:08:27;;;;;;;12.17;10.90;;;14.70;94.00;;;;;;5053993;28;20461;-57
2023/05/06 01:10:59;;;;;;;13.97;12.57;;;14.70;93.80;;;;;;5054100;28;20430;-57
2023/05/06 01:13:35;;;;;;;13.57;12.07;;;14.60;93.80;;;;;;5054034;28;20445;-57
2023/05/06 01:16:04;;;;;;;13.30;12.00;;;14.60;94.00;;;;;;5053759;28;20465;-57
2023/05/06 01:18:32;;;;;;;11.30;10.20;;;14.60;94.10;;;;;;5053677;28;20861;-57
2023/05/06 01:21:00;;;;;;;13.03;11.83;;;14.60;93.80;;;;;;5054031;28;20454;-57
2023/05/06 01:23:28;;;;;;;12.93;11.63;;;14.60;93.80;;;;;;5053856;28;20460;-57
2023/05/06 01:25:55;;;;;;;14.67;13.00;;;14.60;93.80;;;;;;5053902;28;20811;-57
2023/05/06 01:28:22;;;;;;;15.60;13.10;;;14.50;93.90;;;;;;5053597;28;20456;-57
2023/05/06 01:30:55;;;;;;;14.37;12.90;;;14.50;94.00;;;;;;5053769;28;20449;-57
2023/05/06 01:33:31;;;;;;;12.97;11.57;;;14.50;93.90;;;;;;5053827;28;20504;-57
2023/05/06 01:36:07;;;;;;;14.37;12.87;;;14.50;93.90;;;;;;5053784;28;20465;-57
2023/05/06 01:38:42;;;;;;;13.70;12.13;;;14.40;93.90;;;;;;5053748;28;20461;-57
2023/05/06 01:41:14;;;;;;;14.10;12.10;;;14.40;93.80;;;;;;5053742;28;20457;-57
2023/05/06 01:43:44;;;;;;;14.20;12.60;;;14.40;93.80;;;;;;5053616;28;20449;-57
2023/05/06 01:46:15;;;;;;;13.50;12.10;;;14.40;94.10;;;;;;5053300;28;20928;-57
2023/05/06 01:48:42;;;;;;;15.10;12.43;;;14.30;93.80;;;;;;5053840;28;20499;-57
2023/05/06 01:51:09;;;;;;;17.27;14.30;;;14.30;93.90;;;;;;5053641;28;20824;-57
2023/05/06 01:53:37;;;;;;;14.10;11.80;;;14.30;94.00;;;;;;5053213;28;20949;-57
2023/05/06 01:56:04;;;;;;;13.83;12.43;;;14.20;93.90;;;;;;5053354;28;20477;-57
2023/05/06 01:58:31;;;;;;;15.77;13.57;;;14.20;93.90;;;;;;5053651;28;20450;-57
2023/05/06 02:00:58;;;;;;;18.90;15.80;;;14.20;94.30;;;;;;5053504;28;20454;-57
2023/05/06 02:03:25;;;;;;;19.53;17.43;;;14.20;94.50;;;;;;5053736;28;20453;-57
2023/05/06 02:05:52;;;;;;;18.77;15.83;;;14.10;94.90;;;;;;5053473;28;20966;-57
2023/05/06 02:08:19;;;;;;;17.93;15.17;;;14.10;94.90;;;;;;5053146;28;20484;-58
2023/05/06 02:10:47;;;;;;;19.63;16.40;;;14.10;94.70;;;;;;5053248;28;20468;-58
2023/05/06 02:13:13;;;;;;;22.80;17.17;;;14.00;94.60;;;;;;5059244;28;20445;-58
2023/05/06 02:15:40;;;;;;;21.10;17.60;;;14.00;94.70;;;;;;5056839;28;20466;-57
2023/05/06 02:18:07;;;;;;;20.27;16.97;;;14.00;94.70;;;;;;5055241;28;20478;-57
2023/05/06 02:20:33;;;;;;;27.80;22.50;;;14.00;94.70;;;;;;5055491;28;20823;-57
2023/05/06 02:23:00;;;;;;;24.90;21.60;;;14.00;95.10;;;;;;5054847;28;20867;-57
2023/05/06 02:25:27;;;;;;;21.30;17.53;;;14.00;95.70;;;;;;5054343;28;20466;-57
2023/05/06 02:27:55;;;;;;;19.03;17.00;;;14.00;95.60;;;;;;5053666;28;20528;-57
2023/05/06 02:30:21;;;;;;;18.93;16.90;;;14.00;95.10;;;;;;5053470;28;20452;-57
2023/05/06 02:32:48;;;;;;;18.60;16.20;;;14.00;95.00;;;;;;5053266;28;20445;-57
2023/05/06 02:35:15;;;;;;;24.73;20.17;;;14.00;95.10;;;;;;5053284;28;20462;-57
2023/05/06 02:37:41;;;;;;;29.00;23.60;;;13.90;95.10;;;;;;5052809;28;20825;-57
2023/05/06 02:40:09;;;;;;;25.33;20.70;;;14.00;96.00;;;;;;5052832;28;20503;-57
2023/05/06 02:42:36;;;;;;;23.07;19.80;;;14.00;96.20;;;;;;5053067;28;20507;-57
2023/05/06 02:45:04;;;;;;;27.47;23.07;;;13.90;96.10;;;;;;5052904;28;20473;-57
2023/05/06 02:47:31;;;;;;;25.80;22.17;;;13.90;96.00;;;;;;5052980;28;20445;-57
2023/05/06 02:49:58;;;;;;;31.00;23.47;;;14.00;96.00;;;;;;5053034;28;20486;-57
2023/05/06 02:52:25;;;;;;;29.30;24.77;;;13.90;95.90;;;;;;5052606;28;20445;-57
2023/05/06 02:54:52;;;;;;;29.23;24.10;;;13.90;96.00;;;;;;5052598;28;20983;-57
2023/05/06 02:57:18;;;;;;;31.00;26.47;;;13.90;96.30;;;;;;5052696;28;20485;-57
2023/05/06 02:59:45;;;;;;;30.70;25.90;;;13.90;96.50;;;;;;5052810;28;20454;-57
2023/05/06 03:02:13;;;;;;;27.30;22.90;;;13.90;97.10;;;;;;5052861;28;20453;-57
2023/05/06 03:04:40;;;;;;;27.67;22.50;;;14.00;97.50;;;;;;5053168;28;20462;-57
2023/05/06 03:07:06;;;;;;;26.17;20.90;;;13.90;97.00;;;;;;5053716;28;20449;-57
2023/05/06 03:09:33;;;;;;;23.67;20.03;;;13.90;96.60;;;;;;5052280;28;20464;-57
2023/05/06 03:12:00;;;;;;;24.47;20.10;;;13.90;96.50;;;;;;5052878;28;20523;-57
2023/05/06 03:14:27;;;;;;;21.10;17.43;;;13.90;96.20;;;;;;5052348;28;21057;-57
2023/05/06 03:16:54;;;;;;;21.37;18.60;;;13.80;95.90;;;;;;5052593;28;20489;-57
2023/05/06 03:19:22;;;;;;;23.20;18.30;;;13.80;95.70;;;;;;5054257;28;20456;-57
2023/05/06 03:21:49;;;;;;;25.53;19.87;;;13.80;95.70;;;;;;5056304;28;20797;-57
2023/05/06 03:24:15;;;;;;;22.00;19.03;;;13.80;95.60;;;;;;5056116;28;20469;-57
2023/05/06 03:26:42;;;;;;;25.73;18.37;;;13.80;95.40;;;;;;5056192;28;20446;-57
2023/05/06 03:29:09;;;;;;;21.27;17.70;;;13.70;95.20;;;;;;5055842;28;20445;-57
2023/05/06 03:31:35;;;;;;;22.07;18.93;;;13.70;95.20;;;;;;5056020;28;20454;-57
2023/05/06 03:34:02;;;;;;;20.37;18.07;;;13.70;95.20;;;;;;5056595;28;20473;-57
2023/05/06 03:36:30;;;;;;;23.90;19.33;;;13.70;95.20;;;;;;5055949;28;20457;-57
2023/05/06 03:38:57;;;;;;;25.37;21.13;;;13.60;95.10;;;;;;5055868;28;20898;-57
2023/05/06 03:41:24;;;;;;;25.20;20.30;;;13.60;95.20;;;;;;5055854;28;20449;-57
2023/05/06 03:43:52;;;;;;;23.23;19.37;;;13.60;95.20;;;;;;5055757;28;20504;-57
2023/05/06 03:46:19;;;;;;;22.83;20.07;;;13.60;95.30;;;;;;5055726;28;20458;-57
2023/05/06 03:48:46;;;;;;;24.13;21.23;;;13.60;95.30;;;;;;5055730;28;20812;-57
2023/05/06 03:51:13;;;;;;;23.70;20.00;;;13.60;95.40;;;;;;5055405;28;20943;-57
2023/05/06 03:53:41;;;;;;;24.60;20.40;;;13.60;95.30;;;;;;5055254;28;20448;-57
2023/05/06 03:56:07;;;;;;;23.97;20.63;;;13.50;95.30;;;;;;5055515;28;20823;-57
2023/05/06 03:58:34;;;;;;;22.90;19.53;;;13.50;95.30;;;;;;5055761;28;20493;-57
2023/05/06 04:01:01;;;;;;;22.10;19.70;;;13.50;95.20;;;;;;5055447;28;20483;-57
2023/05/06 04:03:27;;;;;;;25.77;20.63;;;13.50;95.20;;;;;;5055370;28;20516;-57
2023/05/06 04:05:54;;;;;;;26.13;21.67;;;13.50;95.10;;;;;;5055341;28;20816;-57
2023/05/06 04:08:21;;;;;;;19.50;15.73;;;13.50;95.10;;;;;;5054969;28;20967;-57
2023/05/06 04:10:50;;;;;;;16.53;13.97;;;13.50;94.90;;;;;;5055238;28;20448;-57
2023/05/06 04:13:17;;;;;;;16.43;14.57;;;13.40;94.60;;;;;;5055242;28;20445;-57
2023/05/06 04:15:43;;;;;;;15.33;13.60;;;13.40;94.50;;;;;;5055166;28;20470;-56
2023/05/06 04:18:10;;;;;;;18.97;15.10;;;13.40;94.50;;;;;;5055182;28;20881;-57
2023/05/06 04:20:37;;;;;;;14.33;12.70;;;13.40;94.40;;;;;;5055146;28;20453;-56
2023/05/06 04:23:04;;;;;;;13.10;10.90;;;13.30;94.30;;;;;;5055108;28;20457;-57
2023/05/06 04:25:30;;;;;;;12.53;11.23;;;13.30;94.10;;;;;;5054646;28;21006;-56
2023/05/06 04:27:58;;;;;;;13.67;12.23;;;13.30;94.00;;;;;;5054632;28;20974;-57
2023/05/06 04:30:26;;;;;;;16.67;14.97;;;13.30;94.00;;;;;;5054902;28;20449;-57
2023/05/06 04:32:52;;;;;;;20.00;15.50;;;13.20;94.00;;;;;;5054844;28;20812;-57
2023/05/06 04:35:19;;;;;;;12.27;10.80;;;13.20;94.20;;;;;;5054474;28;21015;-56
2023/05/06 04:37:47;;;;;;;10.53;9.53;;;13.20;94.40;;;;;;5054762;28;20477;-56
2023/05/06 04:40:14;;;;;;;12.83;11.50;;;13.10;94.10;;;;;;5054715;28;20509;-56
2023/05/06 04:42:41;;;;;;;12.60;11.30;;;13.10;94.10;;;;;;5054321;28;20948;-57
2023/05/06 04:45:11;;;;;;;13.00;10.70;;;13.10;94.20;;;;;;5054550;28;20476;-57
2023/05/06 04:47:37;;;;;;;14.73;12.13;;;13.10;94.30;;;;;;5054610;28;20572;-57
2023/05/06 04:50:04;;;;;;;14.60;11.57;;;13.10;94.30;;;;;;5054557;28;20446;-57
2023/05/06 04:52:31;;;;;;;12.97;10.03;;;13.00;94.20;;;;;;5054442;28;20450;-57
2023/05/06 04:54:58;;;;;;;12.00;10.73;;;13.10;94.40;;;;;;5054400;28;20508;-57
2023/05/06 04:57:25;;;;;;;12.30;10.93;;;13.00;94.50;;;;;;5054418;28;20485;-57
2023/05/06 04:59:51;;;;;;;12.10;10.80;;;13.00;94.60;;;;;;5054148;28;20943;-57
2023/05/06 05:02:19;;;;;;;14.83;12.70;;;13.10;94.90;;;;;;5054313;28;20457;-57
2023/05/06 05:04:46;;;;;;;14.43;12.47;;;13.10;95.10;;;;;;5054718;28;20476;-57
2023/05/06 05:07:13;;;;;;;17.47;13.20;;;13.20;95.20;;;;;;5054365;28;20482;-57
2023/05/06 05:09:39;;;;;;;14.50;12.90;;;13.10;95.30;;;;;;5053886;28;20453;-57
2023/05/06 05:12:06;;;;;;;15.20;13.60;;;13.20;95.60;;;;;;5054310;28;20449;-57
2023/05/06 05:14:33;;;;;;;14.13;12.63;;;13.20;95.80;;;;;;5054063;28;20473;-57
2023/05/06 05:17:00;;;;;;;16.80;13.00;;;13.30;96.00;;;;;;5053964;28;20449;-57
2023/05/06 05:19:28;;;;;;;18.30;14.33;;;13.30;96.10;;;;;;5054090;28;20499;-57
2023/05/06 05:21:54;;;;;;;14.93;13.30;;;13.40;96.40;;;;;;5054058;28;20507;-57
2023/05/06 05:24:21;;;;;;;15.93;13.47;;;13.40;96.50;;;;;;5053929;28;20509;-57
2023/05/06 05:26:48;;;;;;;18.07;14.73;;;13.50;96.70;;;;;;5054193;28;20460;-57
2023/05/06 05:29:14;;;;;;;20.27;17.73;;;13.60;96.80;;;;;;5055129;28;20452;-57
2023/05/06 05:31:41;;;;;;;17.47;15.63;;;13.70;97.20;;;;;;5055584;28;20970;-57
2023/05/06 05:34:08;;;;;;;19.47;17.43;;;13.80;97.50;;;;;;5054898;28;20471;-57
2023/05/06 05:36:36;;;;;;;19.60;16.77;;;13.90;97.90;;;;;;5054400;28;20480;-57
2023/05/06 05:39:03;;;;;;;19.93;17.23;;;13.90;98.00;;;;;;5053882;28;20477;-56
2023/05/06 05:41:29;;;;;;;21.33;15.90;;;14.00;98.20;;;;;;5053343;28;20445;-57
2023/05/06 05:43:56;;;;;;;18.60;16.63;;;14.10;98.20;;;;;;5053753;28;20556;-57
2023/05/06 05:46:23;;;;;;;21.60;17.30;;;14.20;98.70;;;;;;5053565;28;20453;-57
2023/05/06 05:48:49;;;;;;;18.00;16.10;;;14.30;98.90;;;;;;5053427;28;20943;-57
2023/05/06 05:51:16;;;;;;;17.13;15.33;;;14.40;99.10;;;;;;5053573;28;20836;-57
2023/05/06 05:53:44;;;;;;;16.13;14.43;;;14.40;99.10;;;;;;5052920;28;20959;-58
2023/05/06 05:56:11;;;;;;;20.00;14.20;;;14.50;99.20;;;;;;5053326;28;20475;-57
2023/05/06 05:58:37;;;;;;;20.03;15.50;;;14.60;99.30;;;;;;5053317;28;20481;-57
2023/05/06 06:01:05;;;;;;;14.90;12.93;;;14.70;99.30;;;;;;5053262;28;20449;-57
2023/05/06 06:03:31;;;;;;;15.23;13.07;;;14.80;99.20;;;;;;5053338;28;20456;-58
2023/05/06 06:05:58;;;;;;;13.63;12.30;;;14.90;99.20;;;;;;5053614;28;20613;-57
2023/05/06 06:08:25;;;;;;;14.53;12.90;;;15.00;99.00;;;;;;5052928;28;20955;-57
2023/05/06 06:10:53;;;;;;;13.73;11.63;;;15.00;98.80;;;;;;5053296;28;20445;-58
2023/05/06 06:13:20;;;;;;;12.90;11.53;;;15.10;98.80;;;;;;5053302;28;20453;-57
2023/05/06 06:15:47;;;;;;;12.03;10.77;;;15.20;98.40;;;;;;5053181;28;20543;-57
2023/05/06 06:18:13;;;;;;;11.93;10.30;;;15.40;98.20;;;;;;5053230;28;20526;-57
2023/05/06 06:20:40;;;;;;;14.50;11.10;;;15.50;98.00;;;;;;5053155;28;20476;-58
2023/05/06 06:23:07;;;;;;;12.60;10.10;;;15.60;98.00;;;;;;5053148;28;20445;-57
2023/05/06 06:25:33;;;;;;;10.03;9.00;;;15.70;97.90;;;;;;5052745;28;20995;-57
2023/05/06 06:28:01;;;;;;;12.37;9.13;;;15.80;97.90;;;;;;5053148;28;20445;-57
2023/05/06 06:30:28;;;;;;;12.50;8.00;;;15.90;98.10;;;;;;5052815;28;20940;-57
2023/05/06 06:32:57;;;;;;;8.60;7.00;;;15.90;97.90;;;;;;5053034;28;20446;-57
2023/05/06 06:35:25;;;;;;;8.50;7.20;;;16.00;97.70;;;;;;5052502;28;20474;-57
2023/05/06 06:37:52;;;;;;;8.70;7.47;;;16.00;97.00;;;;;;5053301;28;20461;-57
2023/05/06 06:40:19;;;;;;;7.37;6.23;;;16.10;97.20;;;;;;5053348;28;20449;-57
2023/05/06 06:42:46;;;;;;;8.77;7.43;;;16.10;97.10;;;;;;5052954;28;20453;-57
2023/05/06 06:45:15;;;;;;;8.63;7.73;;;16.20;97.00;;;;;;5052951;28;20902;-57
2023/05/06 06:47:41;;;;;;;10.00;7.23;;;16.40;96.90;;;;;;5052892;28;20445;-57
2023/05/06 06:50:10;;;;;;;7.43;6.60;;;16.50;96.80;;;;;;5052928;28;20449;-56
2023/05/06 06:52:36;;;;;;;8.90;6.10;;;16.60;96.40;;;;;;5052864;28;20460;-56
2023/05/06 06:55:04;;;;;;;12.47;6.50;;;16.70;94.90;;;;;;5055583;28;20477;-57
2023/05/06 06:57:30;;;;;;;6.03;5.30;;;16.80;95.10;;;;;;5057066;28;20450;-57
2023/05/06 06:59:57;;;;;;;8.93;5.10;;;16.90;95.20;;;;;;5056487;28;20452;-57
2023/05/06 07:02:25;;;;;;;7.40;5.10;;;17.00;95.00;;;;;;5056511;28;20449;-57
2023/05/06 07:04:52;;;;;;;6.50;5.63;;;17.10;94.90;;;;;;5056494;28;20474;-57
2023/05/06 07:07:18;;;;;;;7.63;5.40;;;17.30;94.90;;;;;;5056523;28;20461;-57
2023/05/06 07:09:45;;;;;;;9.13;5.00;;;17.40;94.70;;;;;;5056073;28;20460;-57
2023/05/06 07:12:12;;;;;;;5.87;4.20;;;17.50;94.50;;;;;;5056554;28;20475;-57
2023/05/06 07:14:38;;;;;;;5.80;4.70;;;17.70;94.10;;;;;;5056353;28;20469;-57
2023/05/06 07:17:05;;;;;;;8.70;4.60;;;17.80;93.30;;;;;;5056470;28;20448;-57
2023/05/06 07:19:33;;;;;;;4.03;3.30;;;18.00;93.20;;;;;;5056289;28;20477;-56
2023/05/06 07:22:01;;;;;;;6.70;3.90;;;18.10;92.00;;;;;;5056245;28;20453;-57
2023/05/06 07:24:28;;;;;;;7.10;3.70;;;18.20;92.20;;;;;;5056130;28;20515;-57
2023/05/06 07:26:55;;;;;;;6.23;2.97;;;18.40;91.70;;;;;;5056149;28;20449;-57
2023/05/06 07:29:22;;;;;;;7.50;3.20;;;18.50;91.80;;;;;;5056319;28;20481;-57
2023/05/06 07:31:48;;;;;;;4.13;2.83;;;18.70;91.50;;;;;;5056041;28;20445;-57
2023/05/06 07:34:15;;;;;;;4.23;2.90;;;18.80;90.80;;;;;;5055954;28;20472;-57
2023/05/06 07:36:44;;;;;;;3.73;2.90;;;19.00;90.80;;;;;;5055922;28;20484;-57
2023/05/06 07:39:11;;;;;;;3.13;2.00;;;19.10;90.50;;;;;;5055459;28;20477;-57
2023/05/06 07:41:38;;;;;;;2.43;2.03;;;19.30;90.00;;;;;;5055880;28;20477;-57
2023/05/06 07:44:05;;;;;;;3.50;2.00;;;19.50;89.50;;;;;;5055743;28;20624;-57
2023/05/06 07:46:32;;;;;;;4.70;2.57;;;19.80;88.20;;;;;;5055814;28;20461;-57
2023/05/06 07:48:58;;;;;;;2.33;2.13;;;19.90;84.40;;;;;;5056277;28;20450;-57
2023/05/06 07:51:25;;;;;;;2.80;1.80;;;20.10;84.10;;;;;;5055407;28;20965;-57
2023/05/06 07:53:53;;;;;;;4.23;2.00;;;20.30;83.50;;;;;;5055631;28;20484;-57
2023/05/06 07:56:20;;;;;;;4.43;1.90;;;20.50;81.90;;;;;;5055515;28;20445;-57
2023/05/06 07:58:48;;;;;;;3.70;1.90;;;20.70;80.20;;;;;;5055466;28;20481;-57
2023/05/06 08:01:14;;;;;;;3.63;2.00;;;20.80;79.30;;;;;;5055508;28;20545;-57
2023/05/06 08:03:41;;;;;;;4.27;2.00;;;20.70;76.90;;;;;;5055489;28;20453;-57
2023/05/06 08:06:08;;;;;;;4.33;2.30;;;20.70;78.30;;;;;;5055032;28;20456;-56
2023/05/06 08:08:35;;;;;;;2.90;2.00;;;20.60;76.90;;;;;;5055143;28;20453;-56
2023/05/06 08:11:03;;;;;;;3.33;2.17;;;20.60;80.20;;;;;;5055316;28;20442;-57
2023/05/06 08:13:30;;;;;;;2.73;2.00;;;20.60;82.20;;;;;;5054889;28;20954;-57
2023/05/06 08:15:57;;;;;;;2.60;2.40;;;20.70;80.50;;;;;;5055160;28;20507;-57
2023/05/06 08:18:23;;;;;;;4.83;2.57;;;20.80;78.60;;;;;;5055012;28;20477;-57
2023/05/06 08:20:50;;;;;;;2.47;2.27;;;21.00;79.20;;;;;;5054807;28;20948;-57
2023/05/06 08:23:17;;;;;;;6.30;2.43;;;21.30;78.10;;;;;;5055047;28;20537;-57
2023/05/06 08:25:45;;;;;;;2.80;2.43;;;21.50;74.60;;;;;;5054876;28;20987;-57
2023/05/06 08:28:13;;;;;;;2.70;2.40;;;21.70;74.20;;;;;;5055430;28;20449;-57
2023/05/06 08:30:40;;;;;;;2.30;1.77;;;21.80;74.60;;;;;;5056042;28;20441;-57
2023/05/06 08:33:06;;;;;;;3.60;2.00;;;22.00;73.80;;;;;;5055967;28;20473;-57
2023/05/06 08:35:33;;;;;;;2.63;2.00;;;22.20;72.80;;;;;;5055477;28;20480;-57
2023/05/06 08:38:00;;;;;;;5.00;2.77;;;22.40;70.30;;;;;;5055047;28;20532;-57
2023/05/06 08:40:28;;;;;;;2.50;2.17;;;22.60;69.30;;;;;;5054942;28;20503;-57
2023/05/06 08:42:56;;;;;;;3.10;2.20;;;22.90;67.80;;;;;;5054837;28;20456;-57
2023/05/06 08:45:24;;;;;;;5.20;2.30;;;23.20;68.20;;;;;;5054674;28;20505;-57
2023/05/06 08:47:51;;;;;;;4.33;1.77;;;23.50;67.60;;;;;;5054685;28;20492;-57
2023/05/06 08:50:18;;;;;;;2.53;2.20;;;23.80;66.60;;;;;;5055321;28;20454;-57
2023/05/06 08:52:45;;;;;;;3.83;2.03;;;24.10;65.80;;;;;;5054245;28;20946;-57
2023/05/06 08:55:12;;;;;;;2.43;2.00;;;24.30;62.00;;;;;;5054508;28;20876;-57
2023/05/06 08:57:39;;;;;;;1.80;1.47;;;24.50;61.00;;;;;;5054402;28;20453;-57
2023/05/06 09:00:09;;;;;;;2.47;1.97;;;24.60;61.40;;;;;;5054435;28;20485;-57
2023/05/06 09:02:38;;;;;;;3.67;1.60;;;24.70;60.70;;;;;;5054300;28;20453;-57
2023/05/06 09:05:05;;;;;;;3.73;2.60;;;24.90;59.80;;;;;;5055161;28;20527;-57
2023/05/06 09:07:32;;;;;;;2.90;1.57;;;24.90;58.60;;;;;;5054135;28;20446;-57
2023/05/06 09:09:58;;;;;;;2.77;1.67;;;25.10;57.60;;;;;;5054268;28;20431;-58
2023/05/06 09:12:25;;;;;;;2.73;1.80;;;25.30;57.70;;;;;;5053882;28;20858;-57
2023/05/06 09:14:53;;;;;;;3.90;2.03;;;25.40;56.40;;;;;;5054126;28;20546;-57
2023/05/06 09:17:22;;;;;;;2.27;1.30;;;25.60;55.40;;;;;;5054198;28;20472;-57
2023/05/06 09:19:52;;;;;;;1.73;1.47;;;25.70;54.20;;;;;;5053964;28;20556;-57
2023/05/06 09:22:20;;;;;;;2.80;1.40;;;26.00;54.60;;;;;;5053984;28;20454;-57
2023/05/06 09:24:55;;;;;;;2.97;1.63;;;26.30;54.40;;;;;;5053983;28;20519;-57
2023/05/06 09:27:22;;;;;;;2.80;1.23;;;26.70;54.40;;;;;;5054013;28;20436;-57
2023/05/06 09:30:01;;;;;;;2.53;1.77;;;27.10;53.70;;;;;;5053835;28;20456;-57
2023/05/06 09:32:28;;;;;;;2.80;1.50;;;27.40;50.80;;;;;;5053599;28;20464;-57
2023/05/06 09:34:56;;;;;;;3.33;1.30;;;27.60;48.70;;;;;;5053743;28;20476;-57
2023/05/06 09:37:23;;;;;;;1.40;1.30;;;27.80;48.50;;;;;;5053727;28;20453;-58
2023/05/06 09:39:54;;;;;;;1.47;1.00;;;28.00;48.50;;;;;;5053680;28;20481;-57
2023/05/06 09:42:22;;;;;;;1.37;1.20;;;28.30;48.20;;;;;;5053655;28;20465;-57
2023/05/06 09:44:50;;;;;;;4.63;1.23;;;28.60;47.50;;;;;;5054446;28;20481;-58
2023/05/06 09:47:17;;;;;;;2.40;1.20;;;28.80;46.50;;;;;;5053594;28;20483;-58
2023/05/06 09:49:44;;;;;;;2.10;1.47;;;28.80;43.60;;;;;;5053268;28;20441;-58
2023/05/06 09:52:13;;;;;;;2.97;1.20;;;28.60;43.20;;;;;;5053506;28;20453;-57
2023/05/06 09:54:41;;;;;;;2.70;0.90;;;28.60;43.20;;;;;;5053425;28;20469;-58
2023/05/06 09:57:12;;;;;;;1.83;0.93;;;28.70;44.10;;;;;;5053175;28;21109;-58
2023/05/06 09:59:40;;;;;;;2.13;1.30;;;28.90;45.00;;;;;;5053355;28;20468;-58
2023/05/06 10:02:08;;;;;;;6.40;1.23;;;29.20;43.10;;;;;;5053412;28;20457;-57
2023/05/06 10:04:37;;;;;;;3.60;1.07;;;29.50;42.30;;;;;;5053231;28;20468;-58
2023/05/06 10:07:04;;;;;;;1.97;1.10;;;29.80;42.10;;;;;;5053319;28;20452;-58
2023/05/06 10:09:33;;;;;;;1.90;1.03;;;30.10;42.40;;;;;;5052983;28;20453;-58
2023/05/06 10:12:01;;;;;;;1.30;1.20;;;30.40;40.10;;;;;;5052955;28;20459;-58
2023/05/06 10:14:28;;;;;;;1.30;1.20;;;30.60;38.50;;;;;;5053248;28;20475;-58
2023/05/06 10:16:55;;;;;;;2.30;1.47;;;30.90;38.50;;;;;;5053865;28;20453;-58
2023/05/06 10:19:25;;;;;;;2.13;1.07;;;31.20;38.60;;;;;;5052831;28;20998;-58
2023/05/06 10:21:56;;;;;;;2.03;1.10;;;31.70;37.30;;;;;;5053210;28;20485;-58
2023/05/06 10:24:29;;;;;;;1.50;0.77;;;32.10;36.40;;;;;;5053215;28;20469;-56
2023/05/06 10:26:57;;;;;;;1.93;1.03;;;32.40;35.10;;;;;;5052926;28;20444;-58
2023/05/06 10:29:25;;;;;;;4.03;1.70;;;32.70;34.60;;;;;;5056832;28;20443;-58
2023/05/06 10:31:54;;;;;;;1.60;1.20;;;32.90;33.10;;;;;;5057238;28;20485;-56
2023/05/06 10:34:22;;;;;;;4.17;1.60;;;32.90;32.60;;;;;;5057023;28;20539;-56
2023/05/06 10:36:53;;;;;;;2.93;1.27;;;32.80;33.40;;;;;;5057277;28;20816;-56
2023/05/06 10:39:20;;;;;;;2.83;1.53;;;32.60;33.60;;;;;;5056839;28;20472;-56
2023/05/06 10:41:47;;;;;;;3.60;1.30;;;32.50;34.60;;;;;;5057144;28;20466;-56
2023/05/06 10:44:15;;;;;;;2.70;1.10;;;32.50;34.90;;;;;;5056867;28;20567;-56
2023/05/06 10:46:57;;;;;;;1.63;1.10;;;32.60;35.20;;;;;;5057267;28;20449;-56
2023/05/06 10:49:24;;;;;;;1.63;1.10;;;32.80;34.50;;;;;;5056772;28;20845;-57
2023/05/06 10:52:10;;;;;;;3.20;1.53;;;32.80;34.10;;;;;;5057034;28;20444;-58
2023/05/06 10:54:48;;;;;;;3.60;1.40;;;32.80;34.10;;;;;;5056566;28;20515;-58
2023/05/06 10:57:14;;;;;;;5.90;1.60;;;32.70;33.60;;;;;;5057121;28;20512;-58
2023/05/06 10:59:47;;;;;;;2.17;1.37;;;32.60;34.00;;;;;;5056779;28;20480;-58
2023/05/06 11:02:14;;;;;;;2.20;1.20;;;32.80;33.70;;;;;;5056825;28;20440;-58
2023/05/06 11:04:41;;;;;;;3.10;1.40;;;33.00;33.30;;;;;;5056718;28;20551;-58
2023/05/06 11:07:10;;;;;;;5.30;1.80;;;33.30;32.90;;;;;;5056548;28;20449;-58
2023/05/06 11:09:55;;;;;;;2.60;1.40;;;33.40;31.90;;;;;;5056617;28;20461;-58
2023/05/06 11:12:22;;;;;;;2.30;1.40;;;33.60;32.20;;;;;;5056703;28;20421;-58
2023/05/06 11:14:50;;;;;;;1.53;1.33;;;33.50;31.80;;;;;;5061272;28;20464;-58
2023/05/06 11:17:31;;;;;;;3.03;1.30;;;33.30;32.10;;;;;;5058696;28;20455;-58
2023/05/06 11:20:20;;;;;;;2.27;1.30;;;33.30;31.10;;;;;;5058276;28;20859;-58
2023/05/06 11:22:47;;;;;;;5.33;1.70;;;33.60;30.50;;;;;;5057780;28;20444;-58
2023/05/06 11:25:13;;;;;;;2.90;1.63;;;33.80;30.70;;;;;;5057327;28;20836;-58
2023/05/06 11:27:40;;;;;;;4.30;1.40;;;33.90;30.30;;;;;;5056604;28;20939;-58
2023/05/06 11:30:14;;;;;;;2.00;1.10;;;34.00;29.20;;;;;;5056557;28;20476;-58
2023/05/06 11:32:43;;;;;;;3.10;1.47;;;34.20;29.10;;;;;;5056490;28;20440;-58
2023/05/06 11:35:11;;;;;;;1.87;1.23;;;34.30;28.80;;;;;;5056746;28;20473;-58
2023/05/06 11:37:38;;;;;;;1.63;1.10;;;34.40;29.50;;;;;;5056323;28;20203;-58
2023/05/06 11:40:14;;;;;;;3.13;1.47;;;34.50;28.90;;;;;;5055393;28;20234;-58
2023/05/06 11:42:40;;;;;;;2.83;1.20;;;34.50;29.50;;;;;;5056215;28;20460;-58
2023/05/06 11:45:11;;;;;;;2.27;1.50;;;34.60;29.20;;;;;;5056154;28;20224;-58
2023/05/06 11:47:43;;;;;;;2.10;1.23;;;35.20;28.30;;;;;;5056098;28;20425;-58
2023/05/06 11:50:11;;;;;;;3.78;1.20;;;36.00;27.60;;;;;;5056093;28;20280;-58
2023/05/06 11:52:37;;;;;;;4.53;1.35;;;36.90;27.50;;;;;;5056196;28;20210;-58
2023/05/06 11:55:09;;;;;;;4.07;2.03;;;37.70;26.60;;;;;;5055785;28;20222;-58
2023/05/06 11:57:36;;;;;;;2.00;1.20;;;38.30;25.50;;;;;;5055479;28;20225;-58
2023/05/06 12:00:04;;;;;;;1.92;1.02;;;38.80;23.90;;;;;;5055608;28;20218;-56
2023/05/06 12:02:32;;;;;;;2.20;1.13;;;39.20;24.30;;;;;;5055648;28;20608;-56
2023/05/06 12:04:58;;;;;;;3.78;1.40;;;39.70;23.00;;;;;;5055608;28;20226;-56
2023/05/06 12:07:25;;;;;;;2.53;1.30;;;40.30;22.40;;;;;;5055195;28;20198;-56
2023/05/06 12:09:52;;;;;;;2.88;1.15;;;40.60;22.10;;;;;;5055240;28;20614;-56
2023/05/06 12:12:21;;;;;;;3.78;1.50;;;40.70;22.30;;;;;;5055022;28;20209;-56
2023/05/06 12:14:49;;;;;;;4.32;1.08;;;40.70;21.60;;;;;;5055352;28;20275;-56
2023/05/06 12:17:16;;;;;;;2.97;0.95;;;40.60;21.60;;;;;;5055299;28;20209;-56
2023/05/06 12:19:46;;;;;;;4.80;1.20;;;40.40;22.40;;;;;;5055238;28;20658;-56
2023/05/06 12:22:17;;;;;;;1.77;0.93;;;40.20;22.00;;;;;;5055093;28;20203;-56
2023/05/06 12:24:44;;;;;;;1.17;0.80;;;40.10;22.60;;;;;;5055100;28;20257;-56
2023/05/06 12:27:11;;;;;;;3.78;1.45;;;40.10;21.90;;;;;;5055213;28;20198;-56
2023/05/06 12:29:38;;;;;;;2.83;1.38;;;40.10;22.70;;;;;;5055117;28;20198;-56
2023/05/06 12:32:09;;;;;;;2.50;0.90;;;39.90;21.40;;;;;;5055067;28;20202;-57
2023/05/06 12:34:39;;;;;;;2.63;0.98;;;39.70;21.70;;;;;;5054885;28;20227;-57
2023/05/06 12:37:08;;;;;;;2.33;1.00;;;39.40;22.10;;;;;;5054607;28;20635;-57
2023/05/06 12:39:35;;;;;;;5.22;1.50;;;39.20;22.10;;;;;;5054756;28;20233;-57